sensor_id;sensor_type;location;lat;lon;timestamp;pressure;altitude;pressure_sealevel;temperature;humidity
4085;BME280;2057;50.858;6.572;2022-10-17T00:01:02;100466.13;;;15.12;100.00
4085;BME280;2057;50.858;6.572;2022-10-17T00:03:28;100470.44;;;15.13;100.00
4085;BME280;2057;50.858;6.572;2022-10-17T00:05:53;100481.47;;;15.12;100.00
4085;BME280;2057;50.858;6.572;2022-10-17T00:08:19;100478.84;;;15.10;100.00
4085;BME280;2057;50.858;6.572;2022-10-17T00:10:45;100478.78;;;15.07;100.00
4085;BME280;2057;50.858;6.572;2022-10-17T00:13:18;100481.25;;;15.05;100.00
4085;BME280;2057;50.858;6.572;2022-10-17T00:15:44;100476.97;;;15.04;100.00
4085;BME280;2057;50.858;6.572;2022-10-17T00:18:09;100480.44;;;15.06;100.00
4085;BME280;2057;50.858;6.572;2022-10-17T00:20:35;100476.44;;;15.15;100.00
4085;BME280;2057;50.858;6.572;2022-10-17T00:23:00;100477.91;;;15.06;100.00
4085;BME280;2057;50.858;6.572;2022-10-17T00:25:26;100477.97;;;15.08;100.00
4085;BME280;2057;50.858;6.572;2022-10-17T00:27:51;100472.13;;;15.14;100.00
4085;BME280;2057;50.858;6.572;2022-10-17T00:30:16;100478.09;;;15.13;100.00
4085;BME280;2057;50.858;6.572;2022-10-17T00:32:44;100480.56;;;15.10;100.00
4085;BME280;2057;50.858;6.572;2022-10-17T00:35:09;100473.06;;;15.16;100.00
4085;BME280;2057;50.858;6.572;2022-10-17T00:37:35;100480.84;;;15.19;100.00
4085;BME280;2057;50.858;6.572;2022-10-17T00:40:00;100473.81;;;15.12;100.00
4085;BME280;2057;50.858;6.572;2022-10-17T00:42:26;100473.47;;;15.01;100.00
4085;BME280;2057;50.858;6.572;2022-10-17T00:45:31;100471.78;;;15.01;100.00
4085;BME280;2057;50.858;6.572;2022-10-17T00:48:04;100476.94;;;15.03;100.00
4085;BME280;2057;50.858;6.572;2022-10-17T00:50:33;100478.72;;;15.05;100.00
4085;BME280;2057;50.858;6.572;2022-10-17T00:53:01;100478.97;;;15.13;100.00
4085;BME280;2057;50.858;6.572;2022-10-17T00:55:40;100481.41;;;15.10;100.00
4085;BME280;2057;50.858;6.572;2022-10-17T00:58:06;100480.44;;;15.06;100.00
4085;BME280;2057;50.858;6.572;2022-10-17T01:00:32;100485.84;;;15.16;100.00
4085;BME280;2057;50.858;6.572;2022-10-17T01:02:58;100489.31;;;15.18;100.00
4085;BME280;2057;50.858;6.572;2022-10-17T01:05:23;100479.91;;;15.17;100.00
4085;BME280;2057;50.858;6.572;2022-10-17T01:07:49;100479.09;;;15.18;100.00
4085;BME280;2057;50.858;6.572;2022-10-17T01:10:16;100484.09;;;15.15;100.00
4085;BME280;2057;50.858;6.572;2022-10-17T01:13:21;100474.81;;;15.17;100.00
4085;BME280;2057;50.858;6.572;2022-10-17T01:19:12;100467.13;;;15.17;100.00
4085;BME280;2057;50.858;6.572;2022-10-17T01:21:59;100468.84;;;15.16;100.00
4085;BME280;2057;50.858;6.572;2022-10-17T01:24:46;100467.13;;;15.17;100.00
4085;BME280;2057;50.858;6.572;2022-10-17T01:32:49;100468.88;;;15.18;100.00
4085;BME280;2057;50.858;6.572;2022-10-17T01:35:34;100464.53;;;15.15;100.00
4085;BME280;2057;50.858;6.572;2022-10-17T01:40:33;100460.09;;;15.10;100.00
4085;BME280;2057;50.858;6.572;2022-10-17T01:43:24;100460.06;;;15.08;100.00
4085;BME280;2057;50.858;6.572;2022-10-17T01:46:16;100461.97;;;15.15;100.00
4085;BME280;2057;50.858;6.572;2022-10-17T01:48:44;100462.94;;;15.19;100.00
4085;BME280;2057;50.858;6.572;2022-10-17T01:51:16;100454.44;;;15.20;100.00
4085;BME280;2057;50.858;6.572;2022-10-17T01:53:51;100455.31;;;15.22;100.00
4085;BME280;2057;50.858;6.572;2022-10-17T01:56:19;100457.84;;;15.20;100.00
4085;BME280;2057;50.858;6.572;2022-10-17T01:58:50;100454.34;;;15.17;100.00
4085;BME280;2057;50.858;6.572;2022-10-17T02:01:18;100457.75;;;15.17;100.00
4085;BME280;2057;50.858;6.572;2022-10-17T02:03:46;100455.09;;;15.13;100.00
4085;BME280;2057;50.858;6.572;2022-10-17T02:06:20;100450.22;;;15.22;100.00
4085;BME280;2057;50.858;6.572;2022-10-17T02:08:48;100451.78;;;15.17;100.00
4085;BME280;2057;50.858;6.572;2022-10-17T02:11:22;100453.50;;;15.16;100.00
4085;BME280;2057;50.858;6.572;2022-10-17T02:33:01;100441.38;;;15.11;100.00
4085;BME280;2057;50.858;6.572;2022-10-17T02:35:31;100443.19;;;15.15;100.00
4085;BME280;2057;50.858;6.572;2022-10-17T02:37:59;100438.69;;;15.06;100.00
4085;BME280;2057;50.858;6.572;2022-10-17T02:40:29;100435.59;;;15.16;100.00
4085;BME280;2057;50.858;6.572;2022-10-17T02:42:58;100437.63;;;15.28;100.00
4085;BME280;2057;50.858;6.572;2022-10-17T02:45:27;100437.44;;;15.22;100.00
4085;BME280;2057;50.858;6.572;2022-10-17T02:47:58;100433.59;;;15.36;100.00
4085;BME280;2057;50.858;6.572;2022-10-17T02:53:14;100426.38;;;15.23;100.00
4085;BME280;2057;50.858;6.572;2022-10-17T02:55:50;100426.31;;;15.20;100.00
4085;BME280;2057;50.858;6.572;2022-10-17T02:58:20;100426.56;;;15.29;100.00
4085;BME280;2057;50.858;6.572;2022-10-17T03:00:48;100433.59;;;15.36;100.00
4085;BME280;2057;50.858;6.572;2022-10-17T03:03:24;100433.47;;;15.62;100.00
4085;BME280;2057;50.858;6.572;2022-10-17T03:05:50;100429.31;;;15.67;100.00
4085;BME280;2057;50.858;6.572;2022-10-17T03:08:16;100430.19;;;15.68;100.00
4085;BME280;2057;50.858;6.572;2022-10-17T03:10:41;100430.97;;;15.65;100.00
4085;BME280;2057;50.858;6.572;2022-10-17T03:13:07;100436.28;;;15.72;100.00
4085;BME280;2057;50.858;6.572;2022-10-17T03:15:32;100429.72;;;15.83;100.00
4085;BME280;2057;50.858;6.572;2022-10-17T03:17:57;100433.31;;;15.88;100.00
4085;BME280;2057;50.858;6.572;2022-10-17T03:20:23;100441.25;;;15.97;100.00
4085;BME280;2057;50.858;6.572;2022-10-17T03:22:48;100435.31;;;15.98;100.00
4085;BME280;2057;50.858;6.572;2022-10-17T03:25:13;100437.44;;;16.15;100.00
4085;BME280;2057;50.858;6.572;2022-10-17T03:27:42;100440.22;;;16.24;100.00
4085;BME280;2057;50.858;6.572;2022-10-17T03:30:08;100442.59;;;16.18;100.00
4085;BME280;2057;50.858;6.572;2022-10-17T03:32:33;100451.19;;;16.20;100.00
4085;BME280;2057;50.858;6.572;2022-10-17T03:34:58;100446.78;;;16.48;100.00
4085;BME280;2057;50.858;6.572;2022-10-17T03:37:24;100444.88;;;16.41;100.00
4085;BME280;2057;50.858;6.572;2022-10-17T03:39:49;100446.63;;;16.42;100.00
4085;BME280;2057;50.858;6.572;2022-10-17T03:42:15;100448.56;;;16.52;100.00
4085;BME280;2057;50.858;6.572;2022-10-17T03:44:40;100441.16;;;16.63;100.00
4085;BME280;2057;50.858;6.572;2022-10-17T03:47:05;100441.25;;;16.68;100.00
4085;BME280;2057;50.858;6.572;2022-10-17T03:49:33;100435.44;;;16.75;100.00
4085;BME280;2057;50.858;6.572;2022-10-17T03:51:58;100442.44;;;16.82;100.00
4085;BME280;2057;50.858;6.572;2022-10-17T03:54:26;100451.28;;;16.95;100.00
4085;BME280;2057;50.858;6.572;2022-10-17T03:56:51;100459.84;;;16.96;100.00
4085;BME280;2057;50.858;6.572;2022-10-17T03:59:17;100458.38;;;17.07;100.00
4085;BME280;2057;50.858;6.572;2022-10-17T04:01:42;100453.84;;;16.95;100.00
4085;BME280;2057;50.858;6.572;2022-10-17T04:04:08;100449.56;;;16.94;100.00
4085;BME280;2057;50.858;6.572;2022-10-17T04:06:34;100444.38;;;16.92;100.00
4085;BME280;2057;50.858;6.572;2022-10-17T04:09:00;100440.13;;;16.93;100.00
4085;BME280;2057;50.858;6.572;2022-10-17T04:11:28;100450.19;;;16.85;100.00
4085;BME280;2057;50.858;6.572;2022-10-17T04:13:55;100460.81;;;16.99;100.00
4085;BME280;2057;50.858;6.572;2022-10-17T04:16:20;100453.94;;;16.98;100.00
4085;BME280;2057;50.858;6.572;2022-10-17T04:18:46;100458.31;;;17.04;100.00
4085;BME280;2057;50.858;6.572;2022-10-17T04:21:11;100458.38;;;17.07;100.00
4085;BME280;2057;50.858;6.572;2022-10-17T04:23:37;100458.31;;;17.04;100.00
4085;BME280;2057;50.858;6.572;2022-10-17T04:26:03;100448.06;;;17.04;100.00
4085;BME280;2057;50.858;6.572;2022-10-17T04:28:30;100447.38;;;17.11;100.00
4085;BME280;2057;50.858;6.572;2022-10-17T04:31:01;100449.13;;;17.12;100.00
4085;BME280;2057;50.858;6.572;2022-10-17T04:33:27;100450.69;;;17.07;100.00
4085;BME280;2057;50.858;6.572;2022-10-17T04:36:03;100444.59;;;17.02;100.00
4085;BME280;2057;50.858;6.572;2022-10-17T04:38:29;100450.69;;;17.07;100.00
4085;BME280;2057;50.858;6.572;2022-10-17T04:41:02;100460.09;;;17.06;100.00
4085;BME280;2057;50.858;6.572;2022-10-17T04:43:33;100459.16;;;17.03;100.00
4085;BME280;2057;50.858;6.572;2022-10-17T04:46:00;100454.09;;;17.06;100.00
4085;BME280;2057;50.858;6.572;2022-10-17T04:48:27;100465.34;;;17.11;100.00
4085;BME280;2057;50.858;6.572;2022-10-17T04:51:14;100459.09;;;17.00;100.00
4085;BME280;2057;50.858;6.572;2022-10-17T04:53:42;100461.63;;;16.98;100.00
4085;BME280;2057;50.858;6.572;2022-10-17T04:56:16;100460.50;;;16.88;100.00
4085;BME280;2057;50.858;6.572;2022-10-17T04:58:44;100469.03;;;16.87;100.00
4085;BME280;2057;50.858;6.572;2022-10-17T05:01:16;100465.97;;;17.02;100.00
4085;BME280;2057;50.858;6.572;2022-10-17T05:03:42;100474.03;;;16.81;100.00
4085;BME280;2057;50.858;6.572;2022-10-17T05:06:11;100470.75;;;16.88;100.00
4085;BME280;2057;50.858;6.572;2022-10-17T05:08:37;100471.78;;;16.93;100.00
4085;BME280;2057;50.858;6.572;2022-10-17T05:11:03;100468.25;;;16.90;100.00
4085;BME280;2057;50.858;6.572;2022-10-17T05:13:31;100470.63;;;16.82;100.00
4085;BME280;2057;50.858;6.572;2022-10-17T05:15:58;100473.53;;;16.95;100.00
4085;BME280;2057;50.858;6.572;2022-10-17T05:18:24;100478.47;;;16.88;100.00
4085;BME280;2057;50.858;6.572;2022-10-17T05:20:49;100479.41;;;16.92;100.00
4085;BME280;2057;50.858;6.572;2022-10-17T05:23:14;100482.97;;;16.97;100.00
4085;BME280;2057;50.858;6.572;2022-10-17T05:25:40;100482.09;;;16.97;100.00
4085;BME280;2057;50.858;6.572;2022-10-17T05:28:05;100483.94;;;17.02;100.00
4085;BME280;2057;50.858;6.572;2022-10-17T05:30:30;100491.41;;;16.93;100.00
4085;BME280;2057;50.858;6.572;2022-10-17T05:32:56;100504.16;;;16.90;100.00
4085;BME280;2057;50.858;6.572;2022-10-17T05:35:21;100504.16;;;16.90;100.00
4085;BME280;2057;50.858;6.572;2022-10-17T05:37:47;100498.38;;;16.97;100.00
4085;BME280;2057;50.858;6.572;2022-10-17T05:40:12;100503.25;;;16.88;100.00
4085;BME280;2057;50.858;6.572;2022-10-17T05:42:38;100502.22;;;16.80;100.00
4085;BME280;2057;50.858;6.572;2022-10-17T05:45:03;100501.16;;;16.71;100.00
4085;BME280;2057;50.858;6.572;2022-10-17T05:47:29;100502.66;;;16.63;100.00
4085;BME280;2057;50.858;6.572;2022-10-17T05:49:54;100513.50;;;16.51;100.00
4085;BME280;2057;50.858;6.572;2022-10-17T05:52:20;100511.53;;;16.41;100.00
4085;BME280;2057;50.858;6.572;2022-10-17T05:54:45;100504.41;;;16.30;100.00
4085;BME280;2057;50.858;6.572;2022-10-17T05:57:10;100511.88;;;16.21;100.00
4085;BME280;2057;50.858;6.572;2022-10-17T05:59:36;100519.41;;;16.15;100.00
4085;BME280;2057;50.858;6.572;2022-10-17T06:02:01;100521.91;;;16.13;100.00
4085;BME280;2057;50.858;6.572;2022-10-17T06:04:26;100529.53;;;16.12;100.00
4085;BME280;2057;50.858;6.572;2022-10-17T06:06:52;100527.00;;;16.12;100.00
4085;BME280;2057;50.858;6.572;2022-10-17T06:09:18;100526.00;;;16.07;100.00
4085;BME280;2057;50.858;6.572;2022-10-17T06:11:43;100536.41;;;16.13;100.00
4085;BME280;2057;50.858;6.572;2022-10-17T06:14:09;100534.53;;;16.07;100.00
4085;BME280;2057;50.858;6.572;2022-10-17T06:16:34;100534.50;;;16.06;100.00
4085;BME280;2057;50.858;6.572;2022-10-17T06:19:00;100530.13;;;16.02;100.00
4085;BME280;2057;50.858;6.572;2022-10-17T06:21:26;100531.16;;;16.08;100.00
4085;BME280;2057;50.858;6.572;2022-10-17T06:23:52;100539.09;;;16.18;100.00
4085;BME280;2057;50.858;6.572;2022-10-17T06:26:18;100549.00;;;16.05;100.00
4085;BME280;2057;50.858;6.572;2022-10-17T06:28:44;100548.25;;;16.08;100.00
4085;BME280;2057;50.858;6.572;2022-10-17T06:31:14;100539.69;;;16.09;100.00
4085;BME280;2057;50.858;6.572;2022-10-17T06:33:40;100547.72;;;16.21;100.00
4085;BME280;2057;50.858;6.572;2022-10-17T06:36:08;100551.13;;;16.20;100.00
4085;BME280;2057;50.858;6.572;2022-10-17T06:38:34;100554.63;;;16.24;100.00
4085;BME280;2057;50.858;6.572;2022-10-17T06:41:10;100557.56;;;16.38;100.00
4085;BME280;2057;50.858;6.572;2022-10-17T06:43:38;100559.16;;;16.34;100.00
4085;BME280;2057;50.858;6.572;2022-10-17T06:46:06;100571.31;;;16.41;100.00
4085;BME280;2057;50.858;6.572;2022-10-17T06:48:32;100578.31;;;16.47;100.00
4085;BME280;2057;50.858;6.572;2022-10-17T06:50:59;100574.28;;;16.57;100.00
4085;BME280;2057;50.858;6.572;2022-10-17T06:53:29;100583.63;;;16.55;100.00
4085;BME280;2057;50.858;6.572;2022-10-17T06:55:55;100588.13;;;16.63;100.00
4085;BME280;2057;50.858;6.572;2022-10-17T06:58:27;100588.09;;;16.62;100.00
4085;BME280;2057;50.858;6.572;2022-10-17T07:01:08;100586.56;;;16.69;100.00
4085;BME280;2057;50.858;6.572;2022-10-17T07:03:34;100584.06;;;16.72;100.00
4085;BME280;2057;50.858;6.572;2022-10-17T07:05:59;100577.25;;;16.72;100.00
4085;BME280;2057;50.858;6.572;2022-10-17T07:08:25;100568.09;;;16.82;100.00
4085;BME280;2057;50.858;6.572;2022-10-17T07:10:51;100566.44;;;16.84;100.00
4085;BME280;2057;50.858;6.572;2022-10-17T07:13:18;100569.94;;;16.88;100.00
4085;BME280;2057;50.858;6.572;2022-10-17T07:15:43;100572.75;;;16.97;100.00
4085;BME280;2057;50.858;6.572;2022-10-17T07:18:09;100583.94;;;17.01;100.00
4085;BME280;2057;50.858;6.572;2022-10-17T07:20:37;100585.09;;;17.12;100.00
4085;BME280;2057;50.858;6.572;2022-10-17T07:23:03;100582.53;;;17.12;100.00
4085;BME280;2057;50.858;6.572;2022-10-17T07:25:28;100591.16;;;17.16;100.00
4085;BME280;2057;50.858;6.572;2022-10-17T07:27:54;100588.38;;;17.06;100.00
4085;BME280;2057;50.858;6.572;2022-10-17T07:30:20;100584.13;;;17.08;100.00
4085;BME280;2057;50.858;6.572;2022-10-17T07:32:45;100591.22;;;17.19;100.00
4085;BME280;2057;50.858;6.572;2022-10-17T07:35:11;100583.94;;;17.37;100.00
4085;BME280;2057;50.858;6.572;2022-10-17T07:37:37;100571.19;;;17.40;100.00
4085;BME280;2057;50.858;6.572;2022-10-17T07:40:04;100584.84;;;17.39;100.00
4085;BME280;2057;50.858;6.572;2022-10-17T07:42:30;100592.63;;;17.43;100.00
4085;BME280;2057;50.858;6.572;2022-10-17T07:44:55;100590.25;;;17.52;100.00
4085;BME280;2057;50.858;6.572;2022-10-17T07:47:21;100588.66;;;17.57;100.00
4085;BME280;2057;50.858;6.572;2022-10-17T07:49:46;100596.38;;;17.59;100.00
4085;BME280;2057;50.858;6.572;2022-10-17T07:52:13;100591.44;;;17.68;100.00
4085;BME280;2057;50.858;6.572;2022-10-17T07:54:39;100596.78;;;17.77;100.00
4085;BME280;2057;50.858;6.572;2022-10-17T07:57:05;100600.22;;;17.78;100.00
4085;BME280;2057;50.858;6.572;2022-10-17T07:59:32;100602.84;;;17.81;100.00
4085;BME280;2057;50.858;6.572;2022-10-17T08:01:58;100607.34;;;17.91;100.00
4085;BME280;2057;50.858;6.572;2022-10-17T08:04:24;100615.97;;;17.95;100.00
4085;BME280;2057;50.858;6.572;2022-10-17T08:06:50;100616.94;;;17.98;100.00
4085;BME280;2057;50.858;6.572;2022-10-17T08:09:15;100624.75;;;18.03;100.00
4085;BME280;2057;50.858;6.572;2022-10-17T08:11:40;100624.69;;;18.00;100.00
4085;BME280;2057;50.858;6.572;2022-10-17T08:14:08;100627.31;;;18.03;100.00
4085;BME280;2057;50.858;6.572;2022-10-17T08:16:33;100629.78;;;17.97;100.00
4085;BME280;2057;50.858;6.572;2022-10-17T08:18:59;100628.06;;;17.97;100.00
4085;BME280;2057;50.858;6.572;2022-10-17T08:21:25;100639.25;;;17.99;100.00
4085;BME280;2057;50.858;6.572;2022-10-17T08:23:50;100656.72;;;18.17;100.00
4085;BME280;2057;50.858;6.572;2022-10-17T08:26:16;100658.44;;;18.17;100.00
4085;BME280;2057;50.858;6.572;2022-10-17T08:28:44;100661.88;;;18.17;100.00
4085;BME280;2057;50.858;6.572;2022-10-17T08:31:15;100674.06;;;18.26;100.00
4085;BME280;2057;50.858;6.572;2022-10-17T08:33:43;100674.91;;;18.27;100.00
4085;BME280;2057;50.858;6.572;2022-10-17T08:36:09;100675.06;;;18.33;100.00
4085;BME280;2057;50.858;6.572;2022-10-17T08:38:36;100664.78;;;18.33;100.00
4085;BME280;2057;50.858;6.572;2022-10-17T08:41:06;100671.81;;;18.43;100.00
4085;BME280;2057;50.858;6.572;2022-10-17T08:43:41;100681.25;;;18.44;100.00
4085;BME280;2057;50.858;6.572;2022-10-17T08:46:11;100683.97;;;18.50;100.00
4085;BME280;2057;50.858;6.572;2022-10-17T08:48:40;100686.59;;;18.54;100.00
4085;BME280;2057;50.858;6.572;2022-10-17T08:51:26;100695.38;;;18.65;100.00
4085;BME280;2057;50.858;6.572;2022-10-17T08:53:57;100692.19;;;18.78;100.00
4085;BME280;2057;50.858;6.572;2022-10-17T08:56:32;100696.63;;;18.86;100.00
4085;BME280;2057;50.858;6.572;2022-10-17T08:59:04;100696.66;;;18.87;100.00
4085;BME280;2057;50.858;6.572;2022-10-17T09:01:42;100706.16;;;18.91;100.00
4085;BME280;2057;50.858;6.572;2022-10-17T09:18:02;100717.72;;;19.13;99.46
4085;BME280;2057;50.858;6.572;2022-10-17T09:20:37;100715.22;;;19.18;99.45
4085;BME280;2057;50.858;6.572;2022-10-17T09:23:27;100723.00;;;19.20;99.77
4085;BME280;2057;50.858;6.572;2022-10-17T09:25:57;100720.50;;;19.24;99.14
4085;BME280;2057;50.858;6.572;2022-10-17T09:28:33;100720.69;;;19.37;98.06
4085;BME280;2057;50.858;6.572;2022-10-17T09:31:19;100722.22;;;19.25;97.36
4085;BME280;2057;50.858;6.572;2022-10-17T09:33:47;100726.56;;;19.28;96.80
4085;BME280;2057;50.858;6.572;2022-10-17T09:36:20;100726.72;;;19.37;96.37
4085;BME280;2057;50.858;6.572;2022-10-17T09:38:51;100726.72;;;19.37;96.45
4085;BME280;2057;50.858;6.572;2022-10-17T09:41:19;100732.81;;;19.44;96.95
4085;BME280;2057;50.858;6.572;2022-10-17T09:43:45;100739.78;;;19.48;95.98
4085;BME280;2057;50.858;6.572;2022-10-17T09:46:18;100738.94;;;19.51;96.06
4085;BME280;2057;50.858;6.572;2022-10-17T09:48:53;100748.34;;;19.49;95.55
4085;BME280;2057;50.858;6.572;2022-10-17T09:51:20;100744.13;;;19.52;95.72
4085;BME280;2057;50.858;6.572;2022-10-17T09:53:51;100754.63;;;19.63;95.23
4085;BME280;2057;50.858;6.572;2022-10-17T09:56:21;100762.38;;;19.66;95.32
4085;BME280;2057;50.858;6.572;2022-10-17T09:58:52;100754.66;;;19.66;96.18
4085;BME280;2057;50.858;6.572;2022-10-17T10:01:25;100759.78;;;19.65;96.51
4085;BME280;2057;50.858;6.572;2022-10-17T10:04:10;100766.59;;;19.61;97.44
4085;BME280;2057;50.858;6.572;2022-10-17T10:06:38;100766.50;;;19.55;97.18
4085;BME280;2057;50.858;6.572;2022-10-17T10:09:04;100757.22;;;19.65;95.77
4085;BME280;2057;50.858;6.572;2022-10-17T10:11:47;100760.78;;;19.73;96.24
4085;BME280;2057;50.858;6.572;2022-10-17T10:14:36;100765.84;;;19.67;95.61
4085;BME280;2057;50.858;6.572;2022-10-17T10:17:08;100766.66;;;19.66;95.64
4085;BME280;2057;50.858;6.572;2022-10-17T10:19:50;100772.66;;;19.65;95.83
4085;BME280;2057;50.858;6.572;2022-10-17T10:22:18;100772.59;;;19.62;96.06
4085;BME280;2057;50.858;6.572;2022-10-17T10:24:43;100775.09;;;19.55;97.31
4085;BME280;2057;50.858;6.572;2022-10-17T10:27:16;100791.31;;;19.51;97.59
4085;BME280;2057;50.858;6.572;2022-10-17T10:29:48;100799.03;;;19.50;97.02
4085;BME280;2057;50.858;6.572;2022-10-17T10:32:31;100809.22;;;19.43;96.34
4085;BME280;2057;50.858;6.572;2022-10-17T10:35:05;100803.25;;;19.44;96.10
4085;BME280;2057;50.858;6.572;2022-10-17T10:40:03;100808.41;;;19.46;97.02
4085;BME280;2057;50.858;6.572;2022-10-17T10:42:32;100806.59;;;19.40;97.13
4085;BME280;2057;50.858;6.572;2022-10-17T10:45:18;100790.38;;;19.44;96.62
4085;BME280;2057;50.858;6.572;2022-10-17T10:47:55;100785.22;;;19.44;96.86
4085;BME280;2057;50.858;6.572;2022-10-17T10:50:39;100773.56;;;19.68;93.69
4085;BME280;2057;50.858;6.572;2022-10-17T11:01:01;100774.25;;;19.56;96.99
4085;BME280;2057;50.858;6.572;2022-10-17T11:03:33;100783.72;;;19.57;97.39
4085;BME280;2057;50.858;6.572;2022-10-17T11:06:05;100778.31;;;19.43;98.80
4085;BME280;2057;50.858;6.572;2022-10-17T11:08:46;100786.00;;;19.40;98.80
4085;BME280;2057;50.858;6.572;2022-10-17T11:11:29;100786.78;;;19.36;98.94
4085;BME280;2057;50.858;6.572;2022-10-17T11:14:17;100796.44;;;19.48;97.69
4085;BME280;2057;50.858;6.572;2022-10-17T11:17:00;100805.91;;;19.51;97.41
4085;BME280;2057;50.858;6.572;2022-10-17T11:19:37;100809.56;;;19.62;96.46
4085;BME280;2057;50.858;6.572;2022-10-17T11:22:19;100809.50;;;19.59;97.13
4085;BME280;2057;50.858;6.572;2022-10-17T11:24:51;100807.00;;;19.64;96.98
4085;BME280;2057;50.858;6.572;2022-10-17T11:27:22;100805.19;;;19.59;97.36
4085;BME280;2057;50.858;6.572;2022-10-17T11:29:49;100815.47;;;19.56;98.13
4085;BME280;2057;50.858;6.572;2022-10-17T11:32:28;100811.28;;;19.63;97.51
4085;BME280;2057;50.858;6.572;2022-10-17T11:35:06;100818.97;;;19.60;98.23
4085;BME280;2057;50.858;6.572;2022-10-17T11:37:43;100818.97;;;19.60;97.67
4085;BME280;2057;50.858;6.572;2022-10-17T11:40:29;100834.41;;;19.60;98.21
4085;BME280;2057;50.858;6.572;2022-10-17T11:43:24;100831.72;;;19.54;98.48
4085;BME280;2057;50.858;6.572;2022-10-17T11:45:55;100838.66;;;19.58;98.03
4085;BME280;2057;50.858;6.572;2022-10-17T11:48:27;100849.03;;;19.61;98.57
4085;BME280;2057;50.858;6.572;2022-10-17T11:51:07;100852.28;;;19.52;99.90
4085;BME280;2057;50.858;6.572;2022-10-17T11:56:59;100866.25;;;19.65;97.44
4085;BME280;2057;50.858;6.572;2022-10-17T11:59:49;100874.22;;;19.78;96.36
4085;BME280;2057;50.858;6.572;2022-10-17T12:05:00;100875.41;;;19.95;94.20
4085;BME280;2057;50.858;6.572;2022-10-17T12:11:02;100853.19;;;20.03;93.43
4085;BME280;2057;50.858;6.572;2022-10-17T12:16:43;100859.84;;;20.44;88.78
4085;BME280;2057;50.858;6.572;2022-10-17T12:22:01;100867.44;;;20.35;89.56
4085;BME280;2057;50.858;6.572;2022-10-17T12:24:43;100870.03;;;20.38;89.49
4085;BME280;2057;50.858;6.572;2022-10-17T12:27:36;100871.69;;;20.33;90.74
4085;BME280;2057;50.858;6.572;2022-10-17T12:30:14;100876.00;;;20.34;90.47
4085;BME280;2057;50.858;6.572;2022-10-17T12:35:37;100876.28;;;20.54;87.99
4085;BME280;2057;50.858;6.572;2022-10-17T12:38:24;100874.47;;;20.47;88.32
4085;BME280;2057;50.858;6.572;2022-10-17T12:40:52;100882.09;;;20.39;89.47
4085;BME280;2057;50.858;6.572;2022-10-17T12:46:10;100881.44;;;20.54;88.83
4085;BME280;2057;50.858;6.572;2022-10-17T12:51:19;100894.28;;;20.49;88.77
4085;BME280;2057;50.858;6.572;2022-10-17T12:56:42;100887.88;;;20.79;86.40
4085;BME280;2057;50.858;6.572;2022-10-17T12:59:20;100892.19;;;20.80;86.47
4085;BME280;2057;50.858;6.572;2022-10-17T13:01:48;100897.28;;;20.76;87.44
4085;BME280;2057;50.858;6.572;2022-10-17T13:04:16;100899.09;;;20.83;86.41
4085;BME280;2057;50.858;6.572;2022-10-17T13:06:45;100897.44;;;20.88;86.62
4085;BME280;2057;50.858;6.572;2022-10-17T13:11:48;100904.28;;;20.86;86.16
4085;BME280;2057;50.858;6.572;2022-10-17T13:14:16;100900.03;;;20.90;86.54
4085;BME280;2057;50.858;6.572;2022-10-17T13:16:57;100906.91;;;20.89;86.34
4085;BME280;2057;50.858;6.572;2022-10-17T13:19:43;100910.31;;;20.87;86.56
4085;BME280;2057;50.858;6.572;2022-10-17T13:22:14;100911.16;;;20.84;86.89
4085;BME280;2057;50.858;6.572;2022-10-17T13:24:40;100919.69;;;20.78;87.58
4085;BME280;2057;50.858;6.572;2022-10-17T13:27:26;100922.19;;;20.74;88.48
4085;BME280;2057;50.858;6.572;2022-10-17T13:29:52;100920.38;;;20.69;89.01
4085;BME280;2057;50.858;6.572;2022-10-17T13:32:20;100922.09;;;20.71;89.73
4085;BME280;2057;50.858;6.572;2022-10-17T13:35:10;100925.44;;;20.62;91.29
4085;BME280;2057;50.858;6.572;2022-10-17T13:37:38;100925.31;;;20.54;92.13
4085;BME280;2057;50.858;6.572;2022-10-17T13:40:04;100928.72;;;20.53;92.47
4085;BME280;2057;50.858;6.572;2022-10-17T13:42:36;100929.63;;;20.55;92.10
4085;BME280;2057;50.858;6.572;2022-10-17T13:45:02;100926.34;;;20.65;92.70
4085;BME280;2057;50.858;6.572;2022-10-17T13:47:33;100929.78;;;20.64;91.67
4085;BME280;2057;50.858;6.572;2022-10-17T13:50:01;100931.59;;;20.72;89.86
4085;BME280;2057;50.858;6.572;2022-10-17T13:52:28;100934.03;;;20.62;90.95
4085;BME280;2057;50.858;6.572;2022-10-17T13:55:06;100938.59;;;20.79;88.60
4085;BME280;2057;50.858;6.572;2022-10-17T13:57:32;100922.31;;;20.83;87.52
4085;BME280;2057;50.858;6.572;2022-10-17T14:00:09;100926.59;;;20.81;87.59
4085;BME280;2057;50.858;6.572;2022-10-17T14:02:35;100936.09;;;20.83;87.66
4085;BME280;2057;50.858;6.572;2022-10-17T14:07:57;100933.75;;;21.02;84.67
4085;BME280;2057;50.858;6.572;2022-10-17T14:10:31;100944.16;;;21.07;85.04
4085;BME280;2057;50.858;6.572;2022-10-17T14:12:58;100948.34;;;20.98;84.88
4085;BME280;2057;50.858;6.572;2022-10-17T14:15:28;100956.03;;;20.95;85.87
4085;BME280;2057;50.858;6.572;2022-10-17T14:18:04;100958.59;;;20.94;85.82
4085;BME280;2057;50.858;6.572;2022-10-17T14:20:31;100959.50;;;20.97;85.65
4085;BME280;2057;50.858;6.572;2022-10-17T14:22:58;100962.88;;;20.90;85.43
4085;BME280;2057;50.858;6.572;2022-10-17T14:30:40;100982.66;;;20.91;85.28
4085;BME280;2057;50.858;6.572;2022-10-17T14:33:14;100971.59;;;20.98;84.96
4085;BME280;2057;50.858;6.572;2022-10-17T14:35:48;100990.41;;;20.91;85.35
4085;BME280;2057;50.858;6.572;2022-10-17T14:38:16;100986.22;;;20.99;84.63
4085;BME280;2057;50.858;6.572;2022-10-17T14:40:51;100993.84;;;20.92;85.17
4085;BME280;2057;50.858;6.572;2022-10-17T14:43:22;100991.28;;;20.92;85.22
4085;BME280;2057;50.858;6.572;2022-10-17T14:45:49;100983.47;;;20.87;85.63
4085;BME280;2057;50.858;6.572;2022-10-17T14:48:18;100985.19;;;20.88;85.29
4085;BME280;2057;50.858;6.572;2022-10-17T14:51:10;100992.84;;;20.82;86.29
4085;BME280;2057;50.858;6.572;2022-10-17T14:53:36;100979.13;;;20.83;86.27
4085;BME280;2057;50.858;6.572;2022-10-17T14:56:19;100988.66;;;20.89;86.29